sensor_id;sensor_type;location;lat;lon;timestamp;P1;durP1;ratioP1;P2;durP2;ratioP2
2187;SDS011;1100;52.014;8.540;2022-10-30T00:01:18;10.63;;;4.50;;
2187;SDS011;1100;52.014;8.540;2022-10-30T00:03:43;11.50;;;3.50;;
2187;SDS011;1100;52.014;8.540;2022-10-30T00:06:09;11.30;;;4.40;;
2187;SDS011;1100;52.014;8.540;2022-10-30T00:08:34;10.83;;;4.00;;
2187;SDS011;1100;52.014;8.540;2022-10-30T00:11:04;10.55;;;3.85;;
2187;SDS011;1100;52.014;8.540;2022-10-30T00:13:33;10.45;;;3.63;;
2187;SDS011;1100;52.014;8.540;2022-10-30T00:16:01;10.20;;;3.55;;
2187;SDS011;1100;52.014;8.540;2022-10-30T00:18:29;12.33;;;3.13;;
2187;SDS011;1100;52.014;8.540;2022-10-30T00:20:55;11.82;;;3.72;;
2187;SDS011;1100;52.014;8.540;2022-10-30T00:23:20;15.77;;;3.83;;
2187;SDS011;1100;52.014;8.540;2022-10-30T00:25:45;10.37;;;3.07;;
2187;SDS011;1100;52.014;8.540;2022-10-30T00:28:11;10.07;;;4.10;;
2187;SDS011;1100;52.014;8.540;2022-10-30T00:30:36;11.57;;;3.77;;
2187;SDS011;1100;52.014;8.540;2022-10-30T00:33:01;11.23;;;3.75;;
2187;SDS011;1100;52.014;8.540;2022-10-30T00:35:27;13.23;;;3.47;;
2187;SDS011;1100;52.014;8.540;2022-10-30T00:37:53;9.40;;;3.67;;
2187;SDS011;1100;52.014;8.540;2022-10-30T00:40:18;11.33;;;3.60;;
2187;SDS011;1100;52.014;8.540;2022-10-30T00:42:44;15.87;;;3.73;;
2187;SDS011;1100;52.014;8.540;2022-10-30T00:45:10;9.23;;;2.85;;
2187;SDS011;1100;52.014;8.540;2022-10-30T00:47:38;10.55;;;3.03;;
2187;SDS011;1100;52.014;8.540;2022-10-30T00:50:08;13.30;;;3.73;;
2187;SDS011;1100;52.014;8.540;2022-10-30T00:52:56;10.73;;;3.53;;
2187;SDS011;1100;52.014;8.540;2022-10-30T00:55:30;11.35;;;3.33;;
2187;SDS011;1100;52.014;8.540;2022-10-30T00:58:02;12.00;;;3.33;;
2187;SDS011;1100;52.014;8.540;2022-10-30T01:00:33;10.88;;;3.00;;
2187;SDS011;1100;52.014;8.540;2022-10-30T01:03:03;10.67;;;3.50;;
2187;SDS011;1100;52.014;8.540;2022-10-30T01:05:29;11.93;;;3.08;;
2187;SDS011;1100;52.014;8.540;2022-10-30T01:07:57;14.25;;;3.53;;
2187;SDS011;1100;52.014;8.540;2022-10-30T01:10:23;7.43;;;2.83;;
2187;SDS011;1100;52.014;8.540;2022-10-30T01:12:49;12.48;;;3.45;;
2187;SDS011;1100;52.014;8.540;2022-10-30T01:15:17;9.77;;;3.30;;
2187;SDS011;1100;52.014;8.540;2022-10-30T01:34:18;10.47;;;3.40;;
2187;SDS011;1100;52.014;8.540;2022-10-30T01:39:18;9.60;;;2.72;;
2187;SDS011;1100;52.014;8.540;2022-10-30T01:41:50;12.18;;;3.22;;
2187;SDS011;1100;52.014;8.540;2022-10-30T01:44:18;10.03;;;2.63;;
2187;SDS011;1100;52.014;8.540;2022-10-30T01:47:04;9.68;;;2.92;;
2187;SDS011;1100;52.014;8.540;2022-10-30T01:55:03;13.75;;;3.08;;
2187;SDS011;1100;52.014;8.540;2022-10-30T01:57:40;9.10;;;3.67;;
2187;SDS011;1100;52.014;8.540;2022-10-30T02:00:15;10.77;;;2.63;;
2187;SDS011;1100;52.014;8.540;2022-10-30T02:02:41;9.97;;;3.47;;
2187;SDS011;1100;52.014;8.540;2022-10-30T02:05:07;10.23;;;3.15;;
2187;SDS011;1100;52.014;8.540;2022-10-30T02:07:36;10.95;;;3.22;;
2187;SDS011;1100;52.014;8.540;2022-10-30T02:10:01;8.30;;;2.63;;
2187;SDS011;1100;52.014;8.540;2022-10-30T02:12:28;8.57;;;2.90;;
2187;SDS011;1100;52.014;8.540;2022-10-30T02:14:54;9.52;;;2.85;;
2187;SDS011;1100;52.014;8.540;2022-10-30T02:17:22;8.57;;;2.70;;
2187;SDS011;1100;52.014;8.540;2022-10-30T02:19:49;8.60;;;2.65;;
2187;SDS011;1100;52.014;8.540;2022-10-30T02:22:14;9.33;;;3.40;;
2187;SDS011;1100;52.014;8.540;2022-10-30T02:24:41;10.90;;;3.13;;
2187;SDS011;1100;52.014;8.540;2022-10-30T02:27:07;10.18;;;2.95;;
2187;SDS011;1100;52.014;8.540;2022-10-30T02:29:32;8.33;;;2.80;;
2187;SDS011;1100;52.014;8.540;2022-10-30T02:31:57;7.43;;;2.77;;
2187;SDS011;1100;52.014;8.540;2022-10-30T02:34:23;9.13;;;2.73;;
2187;SDS011;1100;52.014;8.540;2022-10-30T02:36:48;12.00;;;3.37;;
2187;SDS011;1100;52.014;8.540;2022-10-30T02:39:13;11.40;;;3.30;;
2187;SDS011;1100;52.014;8.540;2022-10-30T02:41:39;10.77;;;3.40;;
2187;SDS011;1100;52.014;8.540;2022-10-30T02:44:04;9.70;;;3.10;;
2187;SDS011;1100;52.014;8.540;2022-10-30T02:46:30;8.03;;;3.30;;
2187;SDS011;1100;52.014;8.540;2022-10-30T02:48:56;9.60;;;3.00;;
2187;SDS011;1100;52.014;8.540;2022-10-30T02:51:21;9.73;;;2.40;;
2187;SDS011;1100;52.014;8.540;2022-10-30T02:53:46;8.33;;;2.97;;
2187;SDS011;1100;52.014;8.540;2022-10-30T02:56:12;7.57;;;2.70;;
2187;SDS011;1100;52.014;8.540;2022-10-30T02:58:39;9.18;;;3.20;;
2187;SDS011;1100;52.014;8.540;2022-10-30T03:01:12;11.70;;;3.20;;
2187;SDS011;1100;52.014;8.540;2022-10-30T03:03:39;13.63;;;4.78;;
2187;SDS011;1100;52.014;8.540;2022-10-30T03:06:06;8.47;;;3.00;;
2187;SDS011;1100;52.014;8.540;2022-10-30T03:08:33;13.68;;;3.50;;
2187;SDS011;1100;52.014;8.540;2022-10-30T03:11:03;10.90;;;3.08;;
2187;SDS011;1100;52.014;8.540;2022-10-30T03:13:31;10.35;;;2.90;;
2187;SDS011;1100;52.014;8.540;2022-10-30T03:15:58;11.13;;;2.80;;
2187;SDS011;1100;52.014;8.540;2022-10-30T03:18:27;10.97;;;2.97;;
2187;SDS011;1100;52.014;8.540;2022-10-30T03:20:57;11.38;;;2.97;;
2187;SDS011;1100;52.014;8.540;2022-10-30T03:23:23;11.23;;;2.92;;
2187;SDS011;1100;52.014;8.540;2022-10-30T03:25:52;10.93;;;3.03;;
2187;SDS011;1100;52.014;8.540;2022-10-30T03:28:19;14.32;;;3.65;;
2187;SDS011;1100;52.014;8.540;2022-10-30T03:30:45;10.32;;;2.90;;
2187;SDS011;1100;52.014;8.540;2022-10-30T03:33:11;11.17;;;3.13;;
2187;SDS011;1100;52.014;8.540;2022-10-30T03:35:36;9.00;;;3.70;;
2187;SDS011;1100;52.014;8.540;2022-10-30T03:38:01;10.37;;;2.93;;
2187;SDS011;1100;52.014;8.540;2022-10-30T03:40:27;9.60;;;2.90;;
2187;SDS011;1100;52.014;8.540;2022-10-30T03:42:52;10.07;;;3.30;;
2187;SDS011;1100;52.014;8.540;2022-10-30T03:45:17;9.60;;;3.10;;
2187;SDS011;1100;52.014;8.540;2022-10-30T03:47:43;9.00;;;3.10;;
2187;SDS011;1100;52.014;8.540;2022-10-30T03:50:08;10.27;;;3.17;;
2187;SDS011;1100;52.014;8.540;2022-10-30T03:52:34;10.20;;;2.90;;
2187;SDS011;1100;52.014;8.540;2022-10-30T03:54:59;7.50;;;2.67;;
2187;SDS011;1100;52.014;8.540;2022-10-30T03:57:24;8.93;;;2.87;;
2187;SDS011;1100;52.014;8.540;2022-10-30T03:59:49;13.17;;;3.50;;
2187;SDS011;1100;52.014;8.540;2022-10-30T04:02:15;10.57;;;3.00;;
2187;SDS011;1100;52.014;8.540;2022-10-30T04:04:40;9.87;;;3.63;;
2187;SDS011;1100;52.014;8.540;2022-10-30T04:07:05;13.40;;;3.30;;
2187;SDS011;1100;52.014;8.540;2022-10-30T04:09:31;9.83;;;3.20;;
2187;SDS011;1100;52.014;8.540;2022-10-30T04:11:56;10.20;;;2.87;;
2187;SDS011;1100;52.014;8.540;2022-10-30T04:14:21;9.93;;;2.70;;
2187;SDS011;1100;52.014;8.540;2022-10-30T04:16:46;11.10;;;3.23;;
2187;SDS011;1100;52.014;8.540;2022-10-30T04:19:12;10.10;;;2.80;;
2187;SDS011;1100;52.014;8.540;2022-10-30T04:21:37;8.90;;;2.90;;
2187;SDS011;1100;52.014;8.540;2022-10-30T04:24:02;7.93;;;3.03;;
2187;SDS011;1100;52.014;8.540;2022-10-30T04:26:28;8.63;;;3.10;;
2187;SDS011;1100;52.014;8.540;2022-10-30T04:28:53;9.60;;;3.13;;
2187;SDS011;1100;52.014;8.540;2022-10-30T04:31:19;9.40;;;3.27;;
2187;SDS011;1100;52.014;8.540;2022-10-30T04:33:44;10.00;;;2.58;;
2187;SDS011;1100;52.014;8.540;2022-10-30T04:36:09;8.53;;;3.00;;
2187;SDS011;1100;52.014;8.540;2022-10-30T04:38:34;9.73;;;3.20;;
2187;SDS011;1100;52.014;8.540;2022-10-30T04:41:00;9.93;;;3.47;;
2187;SDS011;1100;52.014;8.540;2022-10-30T04:43:26;7.77;;;2.83;;
2187;SDS011;1100;52.014;8.540;2022-10-30T04:45:51;10.32;;;2.70;;
2187;SDS011;1100;52.014;8.540;2022-10-30T04:48:17;9.13;;;3.43;;
2187;SDS011;1100;52.014;8.540;2022-10-30T04:50:43;9.70;;;3.58;;
2187;SDS011;1100;52.014;8.540;2022-10-30T04:53:12;9.97;;;3.20;;
2187;SDS011;1100;52.014;8.540;2022-10-30T04:55:39;11.57;;;3.33;;
2187;SDS011;1100;52.014;8.540;2022-10-30T04:58:05;8.30;;;2.83;;
2187;SDS011;1100;52.014;8.540;2022-10-30T05:00:32;9.73;;;2.90;;
2187;SDS011;1100;52.014;8.540;2022-10-30T05:02:58;9.30;;;2.90;;
2187;SDS011;1100;52.014;8.540;2022-10-30T05:05:24;11.68;;;3.80;;
2187;SDS011;1100;52.014;8.540;2022-10-30T05:07:50;8.63;;;3.73;;
2187;SDS011;1100;52.014;8.540;2022-10-30T05:10:15;7.50;;;3.37;;
2187;SDS011;1100;52.014;8.540;2022-10-30T05:12:42;8.98;;;3.00;;
2187;SDS011;1100;52.014;8.540;2022-10-30T05:15:09;10.30;;;3.35;;
2187;SDS011;1100;52.014;8.540;2022-10-30T05:17:35;9.98;;;3.25;;
2187;SDS011;1100;52.014;8.540;2022-10-30T05:20:00;13.40;;;3.03;;
2187;SDS011;1100;52.014;8.540;2022-10-30T05:22:25;8.77;;;4.00;;
2187;SDS011;1100;52.014;8.540;2022-10-30T05:24:51;10.77;;;3.70;;
2187;SDS011;1100;52.014;8.540;2022-10-30T05:27:16;9.37;;;3.40;;
2187;SDS011;1100;52.014;8.540;2022-10-30T05:29:41;14.03;;;3.40;;
2187;SDS011;1100;52.014;8.540;2022-10-30T05:32:07;13.17;;;3.60;;
2187;SDS011;1100;52.014;8.540;2022-10-30T05:34:32;13.70;;;4.00;;
2187;SDS011;1100;52.014;8.540;2022-10-30T05:36:57;11.43;;;3.30;;
2187;SDS011;1100;52.014;8.540;2022-10-30T05:39:24;8.75;;;3.35;;
2187;SDS011;1100;52.014;8.540;2022-10-30T05:41:49;12.20;;;3.47;;
2187;SDS011;1100;52.014;8.540;2022-10-30T05:44:15;10.60;;;3.40;;
2187;SDS011;1100;52.014;8.540;2022-10-30T05:46:40;10.47;;;3.43;;
2187;SDS011;1100;52.014;8.540;2022-10-30T05:49:06;9.48;;;3.15;;
2187;SDS011;1100;52.014;8.540;2022-10-30T05:51:32;9.00;;;3.30;;
2187;SDS011;1100;52.014;8.540;2022-10-30T05:53:57;13.10;;;3.40;;
2187;SDS011;1100;52.014;8.540;2022-10-30T05:56:22;9.70;;;3.60;;
2187;SDS011;1100;52.014;8.540;2022-10-30T05:58:48;10.77;;;3.50;;
2187;SDS011;1100;52.014;8.540;2022-10-30T06:01:14;10.93;;;3.17;;
2187;SDS011;1100;52.014;8.540;2022-10-30T06:03:40;12.13;;;3.20;;
2187;SDS011;1100;52.014;8.540;2022-10-30T06:06:05;9.77;;;3.33;;
2187;SDS011;1100;52.014;8.540;2022-10-30T06:08:31;12.47;;;3.60;;
2187;SDS011;1100;52.014;8.540;2022-10-30T06:10:56;10.00;;;3.53;;
2187;SDS011;1100;52.014;8.540;2022-10-30T06:13:21;11.38;;;3.88;;
2187;SDS011;1100;52.014;8.540;2022-10-30T06:15:47;12.63;;;3.80;;
2187;SDS011;1100;52.014;8.540;2022-10-30T06:18:12;11.43;;;3.30;;
2187;SDS011;1100;52.014;8.540;2022-10-30T06:20:37;11.67;;;3.70;;
2187;SDS011;1100;52.014;8.540;2022-10-30T06:23:04;9.13;;;3.00;;
2187;SDS011;1100;52.014;8.540;2022-10-30T06:25:31;13.55;;;3.83;;
2187;SDS011;1100;52.014;8.540;2022-10-30T06:27:58;10.80;;;3.53;;
2187;SDS011;1100;52.014;8.540;2022-10-30T06:30:24;7.50;;;3.10;;
2187;SDS011;1100;52.014;8.540;2022-10-30T06:32:54;15.13;;;3.95;;
2187;SDS011;1100;52.014;8.540;2022-10-30T06:35:21;8.85;;;3.22;;
2187;SDS011;1100;52.014;8.540;2022-10-30T06:37:46;9.10;;;3.80;;
2187;SDS011;1100;52.014;8.540;2022-10-30T06:40:12;9.00;;;3.60;;
2187;SDS011;1100;52.014;8.540;2022-10-30T06:42:41;11.48;;;3.45;;
2187;SDS011;1100;52.014;8.540;2022-10-30T06:45:10;9.57;;;3.53;;
2187;SDS011;1100;52.014;8.540;2022-10-30T06:47:36;8.45;;;3.70;;
2187;SDS011;1100;52.014;8.540;2022-10-30T06:50:03;10.82;;;3.80;;
2187;SDS011;1100;52.014;8.540;2022-10-30T06:52:33;18.43;;;3.70;;
2187;SDS011;1100;52.014;8.540;2022-10-30T06:54:58;10.60;;;3.63;;
2187;SDS011;1100;52.014;8.540;2022-10-30T06:57:23;12.07;;;3.80;;
2187;SDS011;1100;52.014;8.540;2022-10-30T06:59:49;9.17;;;3.73;;
2187;SDS011;1100;52.014;8.540;2022-10-30T07:02:14;10.33;;;3.53;;
2187;SDS011;1100;52.014;8.540;2022-10-30T07:04:39;9.43;;;3.53;;
2187;SDS011;1100;52.014;8.540;2022-10-30T07:07:05;11.80;;;4.30;;
2187;SDS011;1100;52.014;8.540;2022-10-30T07:09:30;11.03;;;3.90;;
2187;SDS011;1100;52.014;8.540;2022-10-30T07:11:56;13.20;;;3.93;;
2187;SDS011;1100;52.014;8.540;2022-10-30T07:14:21;10.53;;;3.67;;
2187;SDS011;1100;52.014;8.540;2022-10-30T07:16:46;12.40;;;3.93;;
2187;SDS011;1100;52.014;8.540;2022-10-30T07:19:12;9.07;;;3.70;;
2187;SDS011;1100;52.014;8.540;2022-10-30T07:21:37;13.50;;;3.85;;
2187;SDS011;1100;52.014;8.540;2022-10-30T07:24:03;12.47;;;4.13;;
2187;SDS011;1100;52.014;8.540;2022-10-30T07:26:28;11.27;;;4.13;;
2187;SDS011;1100;52.014;8.540;2022-10-30T07:28:53;8.30;;;3.80;;
2187;SDS011;1100;52.014;8.540;2022-10-30T07:31:19;10.93;;;3.57;;
2187;SDS011;1100;52.014;8.540;2022-10-30T07:33:44;11.50;;;3.63;;
2187;SDS011;1100;52.014;8.540;2022-10-30T07:36:09;10.03;;;3.50;;
2187;SDS011;1100;52.014;8.540;2022-10-30T07:38:35;9.70;;;3.57;;
2187;SDS011;1100;52.014;8.540;2022-10-30T07:41:00;11.43;;;4.03;;
2187;SDS011;1100;52.014;8.540;2022-10-30T07:43:25;13.07;;;3.93;;
2187;SDS011;1100;52.014;8.540;2022-10-30T07:45:50;11.80;;;3.77;;
2187;SDS011;1100;52.014;8.540;2022-10-30T07:48:16;10.60;;;3.40;;
2187;SDS011;1100;52.014;8.540;2022-10-30T07:50:41;11.27;;;3.70;;
2187;SDS011;1100;52.014;8.540;2022-10-30T07:53:06;10.73;;;3.60;;
2187;SDS011;1100;52.014;8.540;2022-10-30T07:55:31;10.93;;;3.53;;
2187;SDS011;1100;52.014;8.540;2022-10-30T07:57:57;11.02;;;3.50;;
2187;SDS011;1100;52.014;8.540;2022-10-30T08:00:22;9.60;;;3.17;;
2187;SDS011;1100;52.014;8.540;2022-10-30T08:02:48;9.47;;;3.27;;
2187;SDS011;1100;52.014;8.540;2022-10-30T08:05:15;10.65;;;3.45;;
2187;SDS011;1100;52.014;8.540;2022-10-30T08:07:40;9.40;;;3.17;;
2187;SDS011;1100;52.014;8.540;2022-10-30T08:10:06;10.37;;;3.30;;
2187;SDS011;1100;52.014;8.540;2022-10-30T08:12:32;9.70;;;3.38;;
2187;SDS011;1100;52.014;8.540;2022-10-30T08:14:58;10.73;;;3.83;;
2187;SDS011;1100;52.014;8.540;2022-10-30T08:17:24;9.90;;;3.30;;
2187;SDS011;1100;52.014;8.540;2022-10-30T08:19:50;9.57;;;3.40;;
2187;SDS011;1100;52.014;8.540;2022-10-30T08:22:15;12.37;;;2.80;;
2187;SDS011;1100;52.014;8.540;2022-10-30T08:24:40;10.90;;;3.20;;
2187;SDS011;1100;52.014;8.540;2022-10-30T08:27:06;8.50;;;3.27;;
2187;SDS011;1100;52.014;8.540;2022-10-30T08:29:31;9.87;;;3.17;;
2187;SDS011;1100;52.014;8.540;2022-10-30T08:31:58;10.07;;;3.20;;
2187;SDS011;1100;52.014;8.540;2022-10-30T08:34:24;8.82;;;2.90;;
2187;SDS011;1100;52.014;8.540;2022-10-30T08:36:51;8.30;;;3.00;;
2187;SDS011;1100;52.014;8.540;2022-10-30T08:39:16;8.75;;;3.15;;
2187;SDS011;1100;52.014;8.540;2022-10-30T08:41:42;14.27;;;3.50;;
2187;SDS011;1100;52.014;8.540;2022-10-30T08:44:08;8.63;;;2.80;;
2187;SDS011;1100;52.014;8.540;2022-10-30T08:46:33;10.83;;;3.43;;
2187;SDS011;1100;52.014;8.540;2022-10-30T08:48:59;8.47;;;3.07;;
2187;SDS011;1100;52.014;8.540;2022-10-30T08:51:25;12.25;;;3.47;;
2187;SDS011;1100;52.014;8.540;2022-10-30T08:53:51;10.77;;;3.10;;
2187;SDS011;1100;52.014;8.540;2022-10-30T08:56:16;14.23;;;3.13;;
2187;SDS011;1100;52.014;8.540;2022-10-30T08:58:42;7.88;;;2.55;;
2187;SDS011;1100;52.014;8.540;2022-10-30T09:01:08;13.20;;;2.92;;
2187;SDS011;1100;52.014;8.540;2022-10-30T09:03:33;8.10;;;2.90;;
2187;SDS011;1100;52.014;8.540;2022-10-30T09:05:58;10.13;;;3.13;;
2187;SDS011;1100;52.014;8.540;2022-10-30T09:08:25;11.20;;;3.22;;
2187;SDS011;1100;52.014;8.540;2022-10-30T09:10:54;10.68;;;3.28;;
2187;SDS011;1100;52.014;8.540;2022-10-30T09:13:20;9.73;;;3.13;;
2187;SDS011;1100;52.014;8.540;2022-10-30T09:15:45;9.52;;;3.30;;
2187;SDS011;1100;52.014;8.540;2022-10-30T09:18:11;11.60;;;3.57;;
2187;SDS011;1100;52.014;8.540;2022-10-30T09:20:36;11.90;;;3.87;;
2187;SDS011;1100;52.014;8.540;2022-10-30T09:23:02;15.65;;;4.10;;
2187;SDS011;1100;52.014;8.540;2022-10-30T09:25:27;9.17;;;2.77;;
2187;SDS011;1100;52.014;8.540;2022-10-30T09:27:53;12.37;;;3.40;;
2187;SDS011;1100;52.014;8.540;2022-10-30T09:30:18;11.90;;;3.17;;
2187;SDS011;1100;52.014;8.540;2022-10-30T09:32:44;7.60;;;2.70;;
2187;SDS011;1100;52.014;8.540;2022-10-30T09:35:09;11.73;;;3.57;;
2187;SDS011;1100;52.014;8.540;2022-10-30T09:37:35;8.93;;;3.17;;
2187;SDS011;1100;52.014;8.540;2022-10-30T09:40:02;12.85;;;2.63;;
2187;SDS011;1100;52.014;8.540;2022-10-30T09:47:43;11.88;;;2.95;;
2187;SDS011;1100;52.014;8.540;2022-10-30T09:56:02;10.47;;;2.80;;
2187;SDS011;1100;52.014;8.540;2022-10-30T10:01:44;9.35;;;2.78;;
2187;SDS011;1100;52.014;8.540;2022-10-30T10:06:51;10.32;;;2.88;;
2187;SDS011;1100;52.014;8.540;2022-10-30T10:09:22;9.33;;;2.90;;
2187;SDS011;1100;52.014;8.540;2022-10-30T10:11:53;9.10;;;3.00;;
2187;SDS011;1100;52.014;8.540;2022-10-30T10:14:42;8.05;;;2.70;;
2187;SDS011;1100;52.014;8.540;2022-10-30T10:17:11;8.13;;;2.65;;
2187;SDS011;1100;52.014;8.540;2022-10-30T10:19:56;10.18;;;2.95;;
2187;SDS011;1100;52.014;8.540;2022-10-30T10:25:02;8.73;;;2.78;;
2187;SDS011;1100;52.014;8.540;2022-10-30T10:27:47;10.57;;;2.88;;
2187;SDS011;1100;52.014;8.540;2022-10-30T10:30:37;13.95;;;3.42;;
2187;SDS011;1100;52.014;8.540;2022-10-30T10:33:19;8.73;;;2.70;;
2187;SDS011;1100;52.014;8.540;2022-10-30T10:36:39;11.33;;;2.80;;
2187;SDS011;1100;52.014;8.540;2022-10-30T10:41:57;12.73;;;2.45;;
2187;SDS011;1100;52.014;8.540;2022-10-30T10:50:23;9.17;;;2.63;;
2187;SDS011;1100;52.014;8.540;2022-10-30T10:55:34;10.88;;;2.72;;
2187;SDS011;1100;52.014;8.540;2022-10-30T10:58:05;11.90;;;2.95;;
2187;SDS011;1100;52.014;8.540;2022-10-30T11:00:35;8.88;;;2.80;;
2187;SDS011;1100;52.014;8.540;2022-10-30T11:03:12;10.47;;;3.07;;
2187;SDS011;1100;52.014;8.540;2022-10-30T11:08:27;11.40;;;2.55;;
2187;SDS011;1100;52.014;8.540;2022-10-30T11:11:03;9.35;;;2.90;;
2187;SDS011;1100;52.014;8.540;2022-10-30T11:13:34;7.63;;;2.88;;
2187;SDS011;1100;52.014;8.540;2022-10-30T11:16:05;12.63;;;2.60;;
2187;SDS011;1100;52.014;8.540;2022-10-30T11:18:39;16.02;;;3.38;;
2187;SDS011;1100;52.014;8.540;2022-10-30T11:21:08;9.85;;;3.00;;
2187;SDS011;1100;52.014;8.540;2022-10-30T11:23:42;10.55;;;2.70;;
2187;SDS011;1100;52.014;8.540;2022-10-30T11:31:38;12.75;;;3.50;;
2187;SDS011;1100;52.014;8.540;2022-10-30T11:36:45;11.40;;;2.70;;
2187;SDS011;1100;52.014;8.540;2022-10-30T11:39:25;10.93;;;2.53;;
2187;SDS011;1100;52.014;8.540;2022-10-30T11:44:18;9.80;;;3.03;;
2187;SDS011;1100;52.014;8.540;2022-10-30T11:46:43;9.52;;;3.35;;
2187;SDS011;1100;52.014;8.540;2022-10-30T11:49:22;9.77;;;2.90;;
2187;SDS011;1100;52.014;8.540;2022-10-30T11:51:49;17.85;;;2.97;;
2187;SDS011;1100;52.014;8.540;2022-10-30T11:54:16;10.65;;;3.00;;
2187;SDS011;1100;52.014;8.540;2022-10-30T11:56:46;13.30;;;3.20;;
2187;SDS011;1100;52.014;8.540;2022-10-30T11:59:17;10.80;;;3.22;;
2187;SDS011;1100;52.014;8.540;2022-10-30T12:02:29;9.57;;;2.90;;
2187;SDS011;1100;52.014;8.540;2022-10-30T12:04:44;9.57;;;2.50;;
2187;SDS011;1100;52.014;8.540;2022-10-30T12:09:47;6.78;;;2.42;;
2187;SDS011;1100;52.014;8.540;2022-10-30T12:12:22;10.27;;;2.80;;
2187;SDS011;1100;52.014;8.540;2022-10-30T12:14:49;10.48;;;2.70;;
2187;SDS011;1100;52.014;8.540;2022-10-30T12:17:16;11.93;;;3.33;;
2187;SDS011;1100;52.014;8.540;2022-10-30T12:19:47;12.83;;;2.80;;
2187;SDS011;1100;52.014;8.540;2022-10-30T12:22:30;10.48;;;2.42;;
2187;SDS011;1100;52.014;8.540;2022-10-30T12:25:02;8.45;;;2.67;;
2187;SDS011;1100;52.014;8.540;2022-10-30T12:27:31;11.73;;;2.47;;
2187;SDS011;1100;52.014;8.540;2022-10-30T12:30:03;10.05;;;2.70;;
2187;SDS011;1100;52.014;8.540;2022-10-30T12:41:30;8.85;;;2.47;;
2187;SDS011;1100;52.014;8.540;2022-10-30T12:44:08;10.32;;;2.78;;
2187;SDS011;1100;52.014;8.540;2022-10-30T12:49:19;9.77;;;2.55;;
2187;SDS011;1100;52.014;8.540;2022-10-30T12:57:14;11.38;;;2.80;;
2187;SDS011;1100;52.014;8.540;2022-10-30T13:05:04;11.10;;;2.58;;
2187;SDS011;1100;52.014;8.540;2022-10-30T13:07:42;8.48;;;3.17;;
2187;SDS011;1100;52.014;8.540;2022-10-30T13:12:56;11.67;;;3.13;;
2187;SDS011;1100;52.014;8.540;2022-10-30T13:17:56;12.65;;;2.97;;
2187;SDS011;1100;52.014;8.540;2022-10-30T13:20:22;8.65;;;2.28;;
2187;SDS011;1100;52.014;8.540;2022-10-30T13:25:39;9.10;;;3.27;;
2187;SDS011;1100;52.014;8.540;2022-10-30T13:28:19;11.25;;;3.00;;
2187;SDS011;1100;52.014;8.540;2022-10-30T13:34:03;11.07;;;3.33;;
2187;SDS011;1100;52.014;8.540;2022-10-30T13:37:07;12.02;;;3.50;;
2187;SDS011;1100;52.014;8.540;2022-10-30T13:43:04;9.95;;;3.95;;
2187;SDS011;1100;52.014;8.540;2022-10-30T13:53:35;12.17;;;3.87;;
2187;SDS011;1100;52.014;8.540;2022-10-30T13:56:03;11.82;;;3.75;;
2187;SDS011;1100;52.014;8.540;2022-10-30T13:58:41;13.68;;;3.78;;
2187;SDS011;1100;52.014;8.540;2022-10-30T14:01:20;12.65;;;3.78;;
2187;SDS011;1100;52.014;8.540;2022-10-30T14:06:54;9.87;;;3.90;;
2187;SDS011;1100;52.014;8.540;2022-10-30T14:09:42;11.82;;;3.78;;
2187;SDS011;1100;52.014;8.540;2022-10-30T14:20:35;13.30;;;3.70;;
2187;SDS011;1100;52.014;8.540;2022-10-30T14:23:04;9.85;;;3.58;;
2187;SDS011;1100;52.014;8.540;2022-10-30T14:25:32;10.43;;;3.80;;
2187;SDS011;1100;52.014;8.540;2022-10-30T14:27:58;10.57;;;4.57;;
2187;SDS011;1100;52.014;8.540;2022-10-30T14:30:24;10.70;;;4.57;;
2187;SDS011;1100;52.014;8.540;2022-10-30T14:32:51;9.00;;;3.70;;
2187;SDS011;1100;52.014;8.540;2022-10-30T14:35:26;10.95;;;4.30;;
2187;SDS011;1100;52.014;8.540;2022-10-30T14:40:37;11.23;;;5.00;;
2187;SDS011;1100;52.014;8.540;2022-10-30T14:46:33;16.08;;;6.20;;
2187;SDS011;1100;52.014;8.540;2022-10-30T14:49:04;10.68;;;4.18;;
2187;SDS011;1100;52.014;8.540;2022-10-30T14:51:40;14.35;;;5.18;;
2187;SDS011;1100;52.014;8.540;2022-10-30T15:00:43;10.82;;;4.50;;
2187;SDS011;1100;52.014;8.540;2022-10-30T15:03:04;11.23;;;4.60;;
2187;SDS011;1100;52.014;8.540;2022-10-30T15:11:15;12.90;;;5.20;;
2187;SDS011;1100;52.014;8.540;2022-10-30T15:13:51;12.57;;;4.82;;
2187;SDS011;1100;52.014;8.540;2022-10-30T15:16:26;12.93;;;5.32;;
2187;SDS011;1100;52.014;8.540;2022-10-30T15:19:03;16.08;;;6.50;;
2187;SDS011;1100;52.014;8.540;2022-10-30T15:21:32;13.17;;;5.20;;
2187;SDS011;1100;52.014;8.540;2022-10-30T15:24:05;11.88;;;5.47;;
2187;SDS011;1100;52.014;8.540;2022-10-30T15:26:49;14.93;;;5.72;;
2187;SDS011;1100;52.014;8.540;2022-10-30T15:29:17;11.15;;;5.32;;
2187;SDS011;1100;52.014;8.540;2022-10-30T15:31:55;14.73;;;5.78;;
2187;SDS011;1100;52.014;8.540;2022-10-30T15:34:25;12.50;;;5.50;;
2187;SDS011;1100;52.014;8.540;2022-10-30T15:36:52;13.40;;;5.90;;
2187;SDS011;1100;52.014;8.540;2022-10-30T15:39:17;15.73;;;5.37;;
2187;SDS011;1100;52.014;8.540;2022-10-30T15:41:47;13.90;;;5.35;;
2187;SDS011;1100;52.014;8.540;2022-10-30T15:44:16;11.48;;;5.45;;
2187;SDS011;1100;52.014;8.540;2022-10-30T15:46:44;10.85;;;5.18;;
2187;SDS011;1100;52.014;8.540;2022-10-30T15:49:14;11.80;;;5.00;;
2187;SDS011;1100;52.014;8.540;2022-10-30T15:51:44;12.35;;;5.03;;
2187;SDS011;1100;52.014;8.540;2022-10-30T15:54:11;12.68;;;5.53;;
2187;SDS011;1100;52.014;8.540;2022-10-30T15:56:43;12.85;;;5.50;;
2187;SDS011;1100;52.014;8.540;2022-10-30T15:59:29;14.57;;;5.30;;
2187;SDS011;1100;52.014;8.540;2022-10-30T16:01:59;10.23;;;4.60;;
2187;SDS011;1100;52.014;8.540;2022-10-30T16:04:35;13.57;;;4.72;;
2187;SDS011;1100;52.014;8.540;2022-10-30T16:07:01;16.30;;;5.35;;
2187;SDS011;1100;52.014;8.540;2022-10-30T16:09:47;12.68;;;4.78;;
2187;SDS011;1100;52.014;8.540;2022-10-30T16:12:28;11.70;;;4.80;;
2187;SDS011;1100;52.014;8.540;2022-10-30T16:14:56;12.27;;;5.10;;
2187;SDS011;1100;52.014;8.540;2022-10-30T16:17:24;16.60;;;5.25;;
2187;SDS011;1100;52.014;8.540;2022-10-30T16:19:51;10.60;;;4.35;;
2187;SDS011;1100;52.014;8.540;2022-10-30T16:22:22;12.85;;;5.05;;
2187;SDS011;1100;52.014;8.540;2022-10-30T16:24:51;14.02;;;5.50;;
2187;SDS011;1100;52.014;8.540;2022-10-30T16:27:18;11.90;;;4.63;;
2187;SDS011;1100;52.014;8.540;2022-10-30T16:29:46;10.88;;;4.47;;
2187;SDS011;1100;52.014;8.540;2022-10-30T16:32:15;11.82;;;5.03;;
2187;SDS011;1100;52.014;8.540;2022-10-30T16:34:43;9.93;;;4.82;;
2187;SDS011;1100;52.014;8.540;2022-10-30T16:37:11;13.85;;;5.30;;
2187;SDS011;1100;52.014;8.540;2022-10-30T16:39:42;11.03;;;4.87;;
2187;SDS011;1100;52.014;8.540;2022-10-30T16:42:24;12.27;;;5.22;;
2187;SDS011;1100;52.014;8.540;2022-10-30T16:44:52;12.65;;;5.13;;
2187;SDS011;1100;52.014;8.540;2022-10-30T16:47:50;15.73;;;5.40;;
2187;SDS011;1100;52.014;8.540;2022-10-30T16:50:22;13.13;;;5.38;;
2187;SDS011;1100;52.014;8.540;2022-10-30T16:52:53;13.70;;;5.73;;
2187;SDS011;1100;52.014;8.540;2022-10-30T16:55:20;13.20;;;5.80;;
2187;SDS011;1100;52.014;8.540;2022-10-30T16:57:47;15.20;;;5.93;;
2187;SDS011;1100;52.014;8.540;2022-10-30T17:00:22;14.13;;;5.32;;
2187;SDS011;1100;52.014;8.540;2022-10-30T17:02:49;10.35;;;4.53;;
2187;SDS011;1100;52.014;8.540;2022-10-30T17:05:24;15.75;;;5.00;;
2187;SDS011;1100;52.014;8.540;2022-10-30T17:07:54;12.63;;;5.28;;
2187;SDS011;1100;52.014;8.540;2022-10-30T17:10:36;16.63;;;4.73;;
2187;SDS011;1100;52.014;8.540;2022-10-30T17:16:12;12.48;;;4.75;;
2187;SDS011;1100;52.014;8.540;2022-10-30T17:18:49;14.20;;;4.10;;
2187;SDS011;1100;52.014;8.540;2022-10-30T17:21:16;12.73;;;4.43;;
2187;SDS011;1100;52.014;8.540;2022-10-30T17:24:05;11.37;;;4.70;;
2187;SDS011;1100;52.014;8.540;2022-10-30T17:26:34;10.52;;;4.63;;
2187;SDS011;1100;52.014;8.540;2022-10-30T17:29:02;11.05;;;4.00;;
2187;SDS011;1100;52.014;8.540;2022-10-30T17:34:36;12.95;;;4.43;;
2187;SDS011;1100;52.014;8.540;2022-10-30T17:36:54;8.77;;;4.10;;
2187;SDS011;1100;52.014;8.540;2022-10-30T17:39:23;13.88;;;4.40;;
2187;SDS011;1100;52.014;8.540;2022-10-30T17:41:49;12.70;;;4.57;;
2187;SDS011;1100;52.014;8.540;2022-10-30T17:44:17;13.30;;;4.25;;
2187;SDS011;1100;52.014;8.540;2022-10-30T17:46:45;16.60;;;4.13;;